sensor_id;sensor_type;location;lat;lon;timestamp;P1;durP1;ratioP1;P2;durP2;ratioP2
19758;SDS011;10038;42.662;23.278;2022-10-31T00:00:13;3.13;;;2.13;;
19758;SDS011;10038;42.662;23.278;2022-10-31T00:02:40;5.60;;;3.03;;
19758;SDS011;10038;42.662;23.278;2022-10-31T00:05:07;2.23;;;1.70;;
19758;SDS011;10038;42.662;23.278;2022-10-31T00:07:34;2.37;;;1.90;;
19758;SDS011;10038;42.662;23.278;2022-10-31T00:10:00;2.07;;;1.77;;
19758;SDS011;10038;42.662;23.278;2022-10-31T00:12:27;4.30;;;1.80;;
19758;SDS011;10038;42.662;23.278;2022-10-31T00:14:55;4.57;;;2.30;;
19758;SDS011;10038;42.662;23.278;2022-10-31T00:17:22;2.27;;;2.07;;
19758;SDS011;10038;42.662;23.278;2022-10-31T00:19:49;3.37;;;1.70;;
19758;SDS011;10038;42.662;23.278;2022-10-31T00:22:15;3.80;;;3.30;;
19758;SDS011;10038;42.662;23.278;2022-10-31T00:24:42;4.00;;;2.37;;
19758;SDS011;10038;42.662;23.278;2022-10-31T00:27:09;8.17;;;2.17;;
19758;SDS011;10038;42.662;23.278;2022-10-31T00:29:35;5.33;;;3.23;;
19758;SDS011;10038;42.662;23.278;2022-10-31T00:32:04;4.83;;;1.70;;
19758;SDS011;10038;42.662;23.278;2022-10-31T00:34:30;3.03;;;1.77;;
19758;SDS011;10038;42.662;23.278;2022-10-31T00:36:57;3.03;;;1.90;;
19758;SDS011;10038;42.662;23.278;2022-10-31T00:39:24;3.20;;;1.77;;
19758;SDS011;10038;42.662;23.278;2022-10-31T00:41:50;4.07;;;2.50;;
19758;SDS011;10038;42.662;23.278;2022-10-31T00:44:17;4.77;;;2.10;;
19758;SDS011;10038;42.662;23.278;2022-10-31T00:46:44;3.00;;;1.30;;
19758;SDS011;10038;42.662;23.278;2022-10-31T00:49:12;3.03;;;1.70;;
19758;SDS011;10038;42.662;23.278;2022-10-31T00:51:39;2.07;;;1.87;;
19758;SDS011;10038;42.662;23.278;2022-10-31T00:54:06;2.97;;;1.90;;
19758;SDS011;10038;42.662;23.278;2022-10-31T00:56:33;3.90;;;1.63;;
19758;SDS011;10038;42.662;23.278;2022-10-31T00:58:59;2.53;;;1.90;;
19758;SDS011;10038;42.662;23.278;2022-10-31T01:01:26;2.70;;;1.83;;
19758;SDS011;10038;42.662;23.278;2022-10-31T01:03:53;2.87;;;1.90;;
19758;SDS011;10038;42.662;23.278;2022-10-31T01:06:21;3.40;;;2.30;;
19758;SDS011;10038;42.662;23.278;2022-10-31T01:08:48;4.00;;;2.07;;
19758;SDS011;10038;42.662;23.278;2022-10-31T01:11:15;4.10;;;2.00;;
19758;SDS011;10038;42.662;23.278;2022-10-31T01:13:44;2.90;;;2.07;;
19758;SDS011;10038;42.662;23.278;2022-10-31T01:16:12;4.83;;;2.17;;
19758;SDS011;10038;42.662;23.278;2022-10-31T01:18:40;2.63;;;2.00;;
19758;SDS011;10038;42.662;23.278;2022-10-31T01:21:08;3.03;;;1.80;;
19758;SDS011;10038;42.662;23.278;2022-10-31T01:23:38;4.57;;;2.40;;
19758;SDS011;10038;42.662;23.278;2022-10-31T01:26:06;2.33;;;1.97;;
19758;SDS011;10038;42.662;23.278;2022-10-31T01:28:35;3.17;;;2.37;;
19758;SDS011;10038;42.662;23.278;2022-10-31T01:31:05;4.53;;;2.43;;
19758;SDS011;10038;42.662;23.278;2022-10-31T01:33:33;3.80;;;2.33;;
19758;SDS011;10038;42.662;23.278;2022-10-31T01:36:00;5.10;;;2.53;;
19758;SDS011;10038;42.662;23.278;2022-10-31T01:38:27;3.10;;;2.60;;
19758;SDS011;10038;42.662;23.278;2022-10-31T01:40:56;3.83;;;2.00;;
19758;SDS011;10038;42.662;23.278;2022-10-31T01:43:22;2.77;;;1.77;;
19758;SDS011;10038;42.662;23.278;2022-10-31T01:45:51;4.00;;;2.93;;
19758;SDS011;10038;42.662;23.278;2022-10-31T01:48:20;2.43;;;2.10;;
19758;SDS011;10038;42.662;23.278;2022-10-31T01:50:51;3.70;;;2.00;;
19758;SDS011;10038;42.662;23.278;2022-10-31T01:53:21;5.27;;;2.47;;
19758;SDS011;10038;42.662;23.278;2022-10-31T01:55:49;3.80;;;2.00;;
19758;SDS011;10038;42.662;23.278;2022-10-31T01:58:18;3.43;;;2.33;;
19758;SDS011;10038;42.662;23.278;2022-10-31T02:00:48;3.63;;;2.40;;
19758;SDS011;10038;42.662;23.278;2022-10-31T02:03:20;4.57;;;2.27;;
19758;SDS011;10038;42.662;23.278;2022-10-31T02:05:48;3.27;;;1.73;;
19758;SDS011;10038;42.662;23.278;2022-10-31T02:08:16;8.30;;;2.77;;
19758;SDS011;10038;42.662;23.278;2022-10-31T02:10:47;3.17;;;1.90;;
19758;SDS011;10038;42.662;23.278;2022-10-31T02:13:14;5.20;;;2.20;;
19758;SDS011;10038;42.662;23.278;2022-10-31T02:15:43;3.20;;;2.20;;
19758;SDS011;10038;42.662;23.278;2022-10-31T02:18:11;2.33;;;1.80;;
19758;SDS011;10038;42.662;23.278;2022-10-31T02:20:40;4.97;;;2.97;;
19758;SDS011;10038;42.662;23.278;2022-10-31T02:26:17;3.20;;;2.10;;
19758;SDS011;10038;42.662;23.278;2022-10-31T02:32:16;2.77;;;2.10;;
19758;SDS011;10038;42.662;23.278;2022-10-31T02:34:50;5.73;;;2.33;;
19758;SDS011;10038;42.662;23.278;2022-10-31T02:37:24;5.80;;;2.60;;
19758;SDS011;10038;42.662;23.278;2022-10-31T02:39:58;5.60;;;2.50;;
19758;SDS011;10038;42.662;23.278;2022-10-31T02:42:31;4.10;;;2.40;;
19758;SDS011;10038;42.662;23.278;2022-10-31T02:45:05;4.13;;;2.90;;
19758;SDS011;10038;42.662;23.278;2022-10-31T02:47:36;4.60;;;3.20;;
19758;SDS011;10038;42.662;23.278;2022-10-31T02:50:04;2.80;;;2.50;;
19758;SDS011;10038;42.662;23.278;2022-10-31T02:52:36;6.50;;;2.53;;
19758;SDS011;10038;42.662;23.278;2022-10-31T02:55:09;6.60;;;3.60;;
19758;SDS011;10038;42.662;23.278;2022-10-31T02:57:38;6.17;;;2.80;;
19758;SDS011;10038;42.662;23.278;2022-10-31T03:00:07;4.20;;;2.60;;
19758;SDS011;10038;42.662;23.278;2022-10-31T03:05:34;4.17;;;2.70;;
19758;SDS011;10038;42.662;23.278;2022-10-31T03:08:13;4.33;;;2.87;;
19758;SDS011;10038;42.662;23.278;2022-10-31T03:10:47;4.43;;;2.90;;
19758;SDS011;10038;42.662;23.278;2022-10-31T03:13:21;3.20;;;2.53;;
19758;SDS011;10038;42.662;23.278;2022-10-31T03:15:55;10.00;;;2.70;;
19758;SDS011;10038;42.662;23.278;2022-10-31T03:18:31;6.27;;;3.47;;
19758;SDS011;10038;42.662;23.278;2022-10-31T03:21:01;4.40;;;2.50;;
19758;SDS011;10038;42.662;23.278;2022-10-31T03:23:34;5.43;;;3.13;;
19758;SDS011;10038;42.662;23.278;2022-10-31T03:26:04;6.17;;;3.53;;
19758;SDS011;10038;42.662;23.278;2022-10-31T03:28:34;3.50;;;2.37;;
19758;SDS011;10038;42.662;23.278;2022-10-31T03:31:05;4.60;;;3.07;;
19758;SDS011;10038;42.662;23.278;2022-10-31T03:33:35;4.30;;;2.87;;
19758;SDS011;10038;42.662;23.278;2022-10-31T03:36:05;4.97;;;3.33;;
19758;SDS011;10038;42.662;23.278;2022-10-31T03:38:34;3.63;;;2.30;;
19758;SDS011;10038;42.662;23.278;2022-10-31T03:41:03;4.17;;;2.50;;
19758;SDS011;10038;42.662;23.278;2022-10-31T03:43:38;5.37;;;2.93;;
19758;SDS011;10038;42.662;23.278;2022-10-31T03:46:12;3.90;;;2.60;;
19758;SDS011;10038;42.662;23.278;2022-10-31T03:48:40;2.60;;;2.33;;
19758;SDS011;10038;42.662;23.278;2022-10-31T03:51:08;5.20;;;2.40;;
19758;SDS011;10038;42.662;23.278;2022-10-31T03:53:43;3.70;;;2.57;;
19758;SDS011;10038;42.662;23.278;2022-10-31T03:56:15;4.20;;;3.03;;
19758;SDS011;10038;42.662;23.278;2022-10-31T03:58:48;4.77;;;3.17;;
19758;SDS011;10038;42.662;23.278;2022-10-31T04:01:23;4.73;;;3.27;;
19758;SDS011;10038;42.662;23.278;2022-10-31T04:03:54;4.30;;;3.67;;
19758;SDS011;10038;42.662;23.278;2022-10-31T04:06:22;4.50;;;3.50;;
19758;SDS011;10038;42.662;23.278;2022-10-31T04:08:51;5.50;;;3.17;;
19758;SDS011;10038;42.662;23.278;2022-10-31T04:11:23;4.73;;;3.00;;
19758;SDS011;10038;42.662;23.278;2022-10-31T04:13:54;6.60;;;3.37;;
19758;SDS011;10038;42.662;23.278;2022-10-31T04:16:23;5.50;;;3.40;;
19758;SDS011;10038;42.662;23.278;2022-10-31T04:18:51;5.40;;;3.50;;
19758;SDS011;10038;42.662;23.278;2022-10-31T04:21:19;5.93;;;3.50;;
19758;SDS011;10038;42.662;23.278;2022-10-31T04:23:53;5.00;;;3.00;;
19758;SDS011;10038;42.662;23.278;2022-10-31T04:26:20;6.23;;;3.07;;
19758;SDS011;10038;42.662;23.278;2022-10-31T04:28:47;3.53;;;2.90;;
19758;SDS011;10038;42.662;23.278;2022-10-31T04:31:14;6.20;;;2.90;;
19758;SDS011;10038;42.662;23.278;2022-10-31T04:33:41;4.37;;;2.77;;
19758;SDS011;10038;42.662;23.278;2022-10-31T04:36:08;2.50;;;2.10;;
19758;SDS011;10038;42.662;23.278;2022-10-31T04:38:36;4.43;;;3.10;;
19758;SDS011;10038;42.662;23.278;2022-10-31T04:41:03;5.23;;;2.90;;
19758;SDS011;10038;42.662;23.278;2022-10-31T04:43:30;3.53;;;2.90;;
19758;SDS011;10038;42.662;23.278;2022-10-31T04:45:57;4.73;;;3.00;;
19758;SDS011;10038;42.662;23.278;2022-10-31T04:48:24;3.90;;;2.43;;
19758;SDS011;10038;42.662;23.278;2022-10-31T04:50:50;9.80;;;4.17;;
19758;SDS011;10038;42.662;23.278;2022-10-31T04:53:17;5.00;;;2.60;;
19758;SDS011;10038;42.662;23.278;2022-10-31T04:55:45;5.63;;;3.53;;
19758;SDS011;10038;42.662;23.278;2022-10-31T04:58:12;6.13;;;3.67;;
19758;SDS011;10038;42.662;23.278;2022-10-31T05:00:39;5.47;;;3.53;;
19758;SDS011;10038;42.662;23.278;2022-10-31T05:03:05;9.30;;;3.83;;
19758;SDS011;10038;42.662;23.278;2022-10-31T05:05:32;2.90;;;2.30;;
19758;SDS011;10038;42.662;23.278;2022-10-31T05:07:59;7.60;;;2.90;;
19758;SDS011;10038;42.662;23.278;2022-10-31T05:10:26;4.70;;;3.60;;
19758;SDS011;10038;42.662;23.278;2022-10-31T05:12:56;4.13;;;3.50;;
19758;SDS011;10038;42.662;23.278;2022-10-31T05:15:25;4.93;;;3.47;;
19758;SDS011;10038;42.662;23.278;2022-10-31T05:17:53;6.60;;;3.10;;
19758;SDS011;10038;42.662;23.278;2022-10-31T05:20:21;8.17;;;3.43;;
19758;SDS011;10038;42.662;23.278;2022-10-31T05:22:50;4.97;;;4.00;;
19758;SDS011;10038;42.662;23.278;2022-10-31T05:25:18;4.77;;;3.40;;
19758;SDS011;10038;42.662;23.278;2022-10-31T05:27:47;4.80;;;3.90;;
19758;SDS011;10038;42.662;23.278;2022-10-31T05:30:17;6.53;;;4.00;;
19758;SDS011;10038;42.662;23.278;2022-10-31T05:32:46;5.87;;;4.30;;
19758;SDS011;10038;42.662;23.278;2022-10-31T05:35:15;10.50;;;4.40;;
19758;SDS011;10038;42.662;23.278;2022-10-31T05:37:43;8.20;;;5.20;;
19758;SDS011;10038;42.662;23.278;2022-10-31T05:40:10;8.80;;;4.50;;
19758;SDS011;10038;42.662;23.278;2022-10-31T05:42:39;6.70;;;4.27;;
19758;SDS011;10038;42.662;23.278;2022-10-31T05:45:07;8.10;;;4.03;;
19758;SDS011;10038;42.662;23.278;2022-10-31T05:47:36;6.10;;;4.50;;
19758;SDS011;10038;42.662;23.278;2022-10-31T05:50:03;7.93;;;4.73;;
19758;SDS011;10038;42.662;23.278;2022-10-31T05:52:31;9.20;;;4.60;;
19758;SDS011;10038;42.662;23.278;2022-10-31T05:54:58;9.30;;;5.53;;
19758;SDS011;10038;42.662;23.278;2022-10-31T05:57:24;9.70;;;5.73;;
19758;SDS011;10038;42.662;23.278;2022-10-31T05:59:51;7.37;;;4.70;;
19758;SDS011;10038;42.662;23.278;2022-10-31T06:02:18;7.83;;;5.30;;
19758;SDS011;10038;42.662;23.278;2022-10-31T06:04:46;9.67;;;6.07;;
19758;SDS011;10038;42.662;23.278;2022-10-31T06:07:13;10.47;;;4.50;;
19758;SDS011;10038;42.662;23.278;2022-10-31T06:09:40;9.27;;;5.80;;
19758;SDS011;10038;42.662;23.278;2022-10-31T06:12:07;9.97;;;5.17;;
19758;SDS011;10038;42.662;23.278;2022-10-31T06:14:34;7.73;;;5.87;;
19758;SDS011;10038;42.662;23.278;2022-10-31T06:17:00;8.87;;;5.90;;
19758;SDS011;10038;42.662;23.278;2022-10-31T06:19:27;10.70;;;6.83;;
19758;SDS011;10038;42.662;23.278;2022-10-31T06:21:55;9.97;;;5.63;;
19758;SDS011;10038;42.662;23.278;2022-10-31T06:24:22;14.40;;;7.13;;
19758;SDS011;10038;42.662;23.278;2022-10-31T06:26:48;11.60;;;7.63;;
19758;SDS011;10038;42.662;23.278;2022-10-31T06:29:15;9.80;;;7.03;;
19758;SDS011;10038;42.662;23.278;2022-10-31T06:31:42;8.70;;;6.43;;
19758;SDS011;10038;42.662;23.278;2022-10-31T06:34:09;12.10;;;7.67;;
19758;SDS011;10038;42.662;23.278;2022-10-31T06:36:35;14.00;;;8.50;;
19758;SDS011;10038;42.662;23.278;2022-10-31T06:39:03;15.47;;;8.83;;
19758;SDS011;10038;42.662;23.278;2022-10-31T06:41:30;11.50;;;7.40;;
19758;SDS011;10038;42.662;23.278;2022-10-31T06:43:57;13.30;;;8.80;;
19758;SDS011;10038;42.662;23.278;2022-10-31T06:46:24;13.33;;;7.90;;
19758;SDS011;10038;42.662;23.278;2022-10-31T06:48:50;13.40;;;8.60;;
19758;SDS011;10038;42.662;23.278;2022-10-31T06:51:17;15.43;;;7.90;;
19758;SDS011;10038;42.662;23.278;2022-10-31T06:53:44;15.93;;;7.73;;
19758;SDS011;10038;42.662;23.278;2022-10-31T06:56:12;9.40;;;8.37;;
19758;SDS011;10038;42.662;23.278;2022-10-31T06:58:38;10.87;;;7.00;;
19758;SDS011;10038;42.662;23.278;2022-10-31T07:01:05;10.27;;;7.73;;
19758;SDS011;10038;42.662;23.278;2022-10-31T07:03:32;16.37;;;8.77;;
19758;SDS011;10038;42.662;23.278;2022-10-31T07:05:59;13.87;;;7.73;;
19758;SDS011;10038;42.662;23.278;2022-10-31T07:08:25;10.90;;;7.77;;
19758;SDS011;10038;42.662;23.278;2022-10-31T07:10:53;9.83;;;8.03;;
19758;SDS011;10038;42.662;23.278;2022-10-31T07:13:22;11.80;;;7.70;;
19758;SDS011;10038;42.662;23.278;2022-10-31T07:15:50;9.83;;;7.60;;
19758;SDS011;10038;42.662;23.278;2022-10-31T07:18:18;10.53;;;8.00;;
19758;SDS011;10038;42.662;23.278;2022-10-31T07:20:46;10.00;;;8.10;;
19758;SDS011;10038;42.662;23.278;2022-10-31T07:23:13;8.87;;;7.63;;
19758;SDS011;10038;42.662;23.278;2022-10-31T07:25:39;9.53;;;7.60;;
19758;SDS011;10038;42.662;23.278;2022-10-31T07:28:06;12.60;;;7.77;;
19758;SDS011;10038;42.662;23.278;2022-10-31T07:30:35;8.73;;;6.57;;
19758;SDS011;10038;42.662;23.278;2022-10-31T07:33:02;7.57;;;6.87;;
19758;SDS011;10038;42.662;23.278;2022-10-31T07:35:30;7.70;;;6.90;;
19758;SDS011;10038;42.662;23.278;2022-10-31T07:37:57;6.83;;;6.13;;
19758;SDS011;10038;42.662;23.278;2022-10-31T07:40:32;8.67;;;7.50;;
19758;SDS011;10038;42.662;23.278;2022-10-31T07:42:58;7.73;;;6.87;;
19758;SDS011;10038;42.662;23.278;2022-10-31T07:45:25;9.10;;;7.63;;
19758;SDS011;10038;42.662;23.278;2022-10-31T07:47:53;9.60;;;7.10;;
19758;SDS011;10038;42.662;23.278;2022-10-31T07:50:21;8.23;;;6.77;;
19758;SDS011;10038;42.662;23.278;2022-10-31T07:52:57;9.60;;;7.30;;
19758;SDS011;10038;42.662;23.278;2022-10-31T07:55:25;9.60;;;7.60;;
19758;SDS011;10038;42.662;23.278;2022-10-31T07:57:55;10.17;;;8.13;;
19758;SDS011;10038;42.662;23.278;2022-10-31T08:00:23;8.73;;;7.83;;
19758;SDS011;10038;42.662;23.278;2022-10-31T08:02:57;9.83;;;7.60;;
19758;SDS011;10038;42.662;23.278;2022-10-31T08:05:24;7.60;;;6.77;;
19758;SDS011;10038;42.662;23.278;2022-10-31T08:07:51;8.77;;;7.87;;
19758;SDS011;10038;42.662;23.278;2022-10-31T08:10:18;7.50;;;6.80;;
19758;SDS011;10038;42.662;23.278;2022-10-31T08:12:45;7.77;;;7.03;;
19758;SDS011;10038;42.662;23.278;2022-10-31T08:15:13;9.17;;;6.40;;
19758;SDS011;10038;42.662;23.278;2022-10-31T08:17:40;7.17;;;5.60;;
19758;SDS011;10038;42.662;23.278;2022-10-31T08:20:08;8.43;;;6.33;;
19758;SDS011;10038;42.662;23.278;2022-10-31T08:22:36;7.00;;;6.30;;
19758;SDS011;10038;42.662;23.278;2022-10-31T08:25:02;6.87;;;5.70;;
19758;SDS011;10038;42.662;23.278;2022-10-31T08:27:29;6.00;;;5.40;;
19758;SDS011;10038;42.662;23.278;2022-10-31T08:29:56;7.00;;;6.03;;
19758;SDS011;10038;42.662;23.278;2022-10-31T08:32:23;6.77;;;5.30;;
19758;SDS011;10038;42.662;23.278;2022-10-31T08:34:50;6.33;;;5.73;;
19758;SDS011;10038;42.662;23.278;2022-10-31T08:37:18;6.03;;;5.43;;
19758;SDS011;10038;42.662;23.278;2022-10-31T08:39:45;7.53;;;5.93;;
19758;SDS011;10038;42.662;23.278;2022-10-31T08:42:12;9.17;;;7.63;;
19758;SDS011;10038;42.662;23.278;2022-10-31T08:44:39;5.73;;;5.13;;
19758;SDS011;10038;42.662;23.278;2022-10-31T08:47:05;5.87;;;5.37;;
19758;SDS011;10038;42.662;23.278;2022-10-31T08:49:32;6.03;;;5.07;;
19758;SDS011;10038;42.662;23.278;2022-10-31T08:51:59;6.00;;;5.40;;
19758;SDS011;10038;42.662;23.278;2022-10-31T08:54:27;5.73;;;5.20;;
19758;SDS011;10038;42.662;23.278;2022-10-31T08:56:54;5.40;;;4.90;;
19758;SDS011;10038;42.662;23.278;2022-10-31T08:59:21;5.30;;;4.70;;
19758;SDS011;10038;42.662;23.278;2022-10-31T09:01:48;6.50;;;5.67;;
19758;SDS011;10038;42.662;23.278;2022-10-31T09:04:15;5.50;;;5.00;;
19758;SDS011;10038;42.662;23.278;2022-10-31T09:06:42;6.13;;;5.53;;
19758;SDS011;10038;42.662;23.278;2022-10-31T09:09:09;11.17;;;5.40;;
19758;SDS011;10038;42.662;23.278;2022-10-31T09:11:37;8.90;;;5.27;;
19758;SDS011;10038;42.662;23.278;2022-10-31T09:14:03;6.50;;;5.00;;
19758;SDS011;10038;42.662;23.278;2022-10-31T09:16:30;5.47;;;4.70;;
19758;SDS011;10038;42.662;23.278;2022-10-31T09:18:57;5.60;;;5.10;;
19758;SDS011;10038;42.662;23.278;2022-10-31T09:21:24;5.83;;;5.23;;
19758;SDS011;10038;42.662;23.278;2022-10-31T09:23:51;8.53;;;5.07;;
19758;SDS011;10038;42.662;23.278;2022-10-31T09:26:18;6.20;;;5.17;;
19758;SDS011;10038;42.662;23.278;2022-10-31T09:28:47;5.00;;;4.47;;
19758;SDS011;10038;42.662;23.278;2022-10-31T09:31:13;6.47;;;5.90;;
19758;SDS011;10038;42.662;23.278;2022-10-31T09:33:40;6.10;;;5.00;;
19758;SDS011;10038;42.662;23.278;2022-10-31T09:36:07;7.10;;;4.87;;
19758;SDS011;10038;42.662;23.278;2022-10-31T09:38:34;6.53;;;4.73;;
19758;SDS011;10038;42.662;23.278;2022-10-31T09:41:02;5.50;;;5.03;;
19758;SDS011;10038;42.662;23.278;2022-10-31T09:43:36;5.47;;;4.97;;
19758;SDS011;10038;42.662;23.278;2022-10-31T09:46:15;6.30;;;5.20;;
19758;SDS011;10038;42.662;23.278;2022-10-31T09:48:55;6.10;;;4.97;;
19758;SDS011;10038;42.662;23.278;2022-10-31T09:51:40;5.80;;;5.30;;
19758;SDS011;10038;42.662;23.278;2022-10-31T09:54:12;5.30;;;4.70;;
19758;SDS011;10038;42.662;23.278;2022-10-31T09:56:43;4.80;;;4.27;;
19758;SDS011;10038;42.662;23.278;2022-10-31T09:59:11;5.60;;;4.50;;
19758;SDS011;10038;42.662;23.278;2022-10-31T10:01:46;7.40;;;5.20;;
19758;SDS011;10038;42.662;23.278;2022-10-31T10:04:19;4.50;;;4.10;;
19758;SDS011;10038;42.662;23.278;2022-10-31T10:06:56;7.20;;;4.30;;
19758;SDS011;10038;42.662;23.278;2022-10-31T10:09:25;6.00;;;4.43;;
19758;SDS011;10038;42.662;23.278;2022-10-31T10:11:55;6.00;;;4.40;;
19758;SDS011;10038;42.662;23.278;2022-10-31T10:14:37;4.53;;;4.13;;
19758;SDS011;10038;42.662;23.278;2022-10-31T10:17:19;3.80;;;3.40;;
19758;SDS011;10038;42.662;23.278;2022-10-31T10:19:57;3.60;;;3.30;;
19758;SDS011;10038;42.662;23.278;2022-10-31T10:22:46;5.57;;;3.00;;
19758;SDS011;10038;42.662;23.278;2022-10-31T10:25:19;2.80;;;2.60;;
19758;SDS011;10038;42.662;23.278;2022-10-31T10:27:55;4.00;;;2.90;;
19758;SDS011;10038;42.662;23.278;2022-10-31T10:30:31;3.70;;;2.20;;
19758;SDS011;10038;42.662;23.278;2022-10-31T10:33:04;3.00;;;2.33;;
19758;SDS011;10038;42.662;23.278;2022-10-31T10:35:36;4.53;;;2.57;;
19758;SDS011;10038;42.662;23.278;2022-10-31T10:38:10;2.40;;;2.20;;
19758;SDS011;10038;42.662;23.278;2022-10-31T10:40:44;4.80;;;3.70;;
19758;SDS011;10038;42.662;23.278;2022-10-31T10:43:18;4.43;;;2.20;;
19758;SDS011;10038;42.662;23.278;2022-10-31T10:45:49;2.63;;;2.40;;
19758;SDS011;10038;42.662;23.278;2022-10-31T10:48:41;3.17;;;2.70;;
19758;SDS011;10038;42.662;23.278;2022-10-31T10:54:02;2.50;;;2.30;;
19758;SDS011;10038;42.662;23.278;2022-10-31T10:56:44;3.20;;;3.00;;
19758;SDS011;10038;42.662;23.278;2022-10-31T10:59:21;2.17;;;1.97;;
19758;SDS011;10038;42.662;23.278;2022-10-31T11:01:49;4.27;;;1.93;;
19758;SDS011;10038;42.662;23.278;2022-10-31T11:07:06;3.70;;;1.90;;
19758;SDS011;10038;42.662;23.278;2022-10-31T11:09:35;2.23;;;1.50;;
19758;SDS011;10038;42.662;23.278;2022-10-31T11:12:07;3.20;;;1.60;;
19758;SDS011;10038;42.662;23.278;2022-10-31T11:14:36;6.23;;;1.80;;
19758;SDS011;10038;42.662;23.278;2022-10-31T11:17:09;2.57;;;1.33;;
19758;SDS011;10038;42.662;23.278;2022-10-31T11:19:49;2.83;;;1.40;;
19758;SDS011;10038;42.662;23.278;2022-10-31T11:22:26;2.27;;;2.07;;
19758;SDS011;10038;42.662;23.278;2022-10-31T11:24:53;1.83;;;1.63;;
19758;SDS011;10038;42.662;23.278;2022-10-31T11:27:20;2.57;;;2.37;;
19758;SDS011;10038;42.662;23.278;2022-10-31T11:29:51;1.60;;;1.50;;
19758;SDS011;10038;42.662;23.278;2022-10-31T11:32:19;5.20;;;1.97;;
19758;SDS011;10038;42.662;23.278;2022-10-31T11:34:49;2.60;;;2.17;;
19758;SDS011;10038;42.662;23.278;2022-10-31T11:37:19;3.23;;;2.50;;
19758;SDS011;10038;42.662;23.278;2022-10-31T11:39:49;5.97;;;2.53;;
19758;SDS011;10038;42.662;23.278;2022-10-31T11:42:20;2.97;;;1.90;;
19758;SDS011;10038;42.662;23.278;2022-10-31T11:44:48;2.43;;;2.03;;
19758;SDS011;10038;42.662;23.278;2022-10-31T11:47:17;2.63;;;2.20;;
19758;SDS011;10038;42.662;23.278;2022-10-31T11:49:55;1.97;;;1.80;;
19758;SDS011;10038;42.662;23.278;2022-10-31T11:52:24;2.40;;;2.20;;
19758;SDS011;10038;42.662;23.278;2022-10-31T11:54:53;2.23;;;1.93;;
19758;SDS011;10038;42.662;23.278;2022-10-31T11:57:22;3.60;;;2.27;;
19758;SDS011;10038;42.662;23.278;2022-10-31T11:59:51;2.60;;;2.40;;
19758;SDS011;10038;42.662;23.278;2022-10-31T12:02:19;3.00;;;2.23;;
19758;SDS011;10038;42.662;23.278;2022-10-31T12:04:48;3.23;;;2.00;;
19758;SDS011;10038;42.662;23.278;2022-10-31T12:07:21;2.93;;;2.00;;
19758;SDS011;10038;42.662;23.278;2022-10-31T12:09:48;2.20;;;2.00;;
19758;SDS011;10038;42.662;23.278;2022-10-31T12:12:22;3.10;;;2.00;;
19758;SDS011;10038;42.662;23.278;2022-10-31T12:15:01;3.70;;;2.60;;
19758;SDS011;10038;42.662;23.278;2022-10-31T12:17:41;2.50;;;2.07;;
19758;SDS011;10038;42.662;23.278;2022-10-31T12:20:17;1.83;;;1.70;;
19758;SDS011;10038;42.662;23.278;2022-10-31T12:22:56;2.80;;;2.00;;
19758;SDS011;10038;42.662;23.278;2022-10-31T12:25:30;2.07;;;1.87;;
19758;SDS011;10038;42.662;23.278;2022-10-31T12:28:10;1.90;;;1.80;;
19758;SDS011;10038;42.662;23.278;2022-10-31T12:30:58;1.97;;;1.87;;
19758;SDS011;10038;42.662;23.278;2022-10-31T12:33:40;3.83;;;2.00;;
19758;SDS011;10038;42.662;23.278;2022-10-31T12:36:18;2.20;;;2.00;;
19758;SDS011;10038;42.662;23.278;2022-10-31T12:39:03;5.17;;;2.00;;
19758;SDS011;10038;42.662;23.278;2022-10-31T12:41:46;2.20;;;1.90;;
19758;SDS011;10038;42.662;23.278;2022-10-31T12:44:26;2.73;;;2.27;;
19758;SDS011;10038;42.662;23.278;2022-10-31T12:47:09;5.20;;;2.20;;
19758;SDS011;10038;42.662;23.278;2022-10-31T12:49:52;2.23;;;1.80;;
19758;SDS011;10038;42.662;23.278;2022-10-31T12:52:30;2.87;;;2.20;;
19758;SDS011;10038;42.662;23.278;2022-10-31T12:55:12;2.20;;;2.00;;
19758;SDS011;10038;42.662;23.278;2022-10-31T12:57:50;2.73;;;2.10;;
19758;SDS011;10038;42.662;23.278;2022-10-31T13:00:20;2.70;;;1.93;;
19758;SDS011;10038;42.662;23.278;2022-10-31T13:02:48;1.80;;;1.70;;
19758;SDS011;10038;42.662;23.278;2022-10-31T13:05:21;2.20;;;1.80;;
19758;SDS011;10038;42.662;23.278;2022-10-31T13:07:54;3.30;;;1.97;;
19758;SDS011;10038;42.662;23.278;2022-10-31T13:10:27;2.63;;;2.17;;
19758;SDS011;10038;42.662;23.278;2022-10-31T13:13:00;2.80;;;2.33;;
19758;SDS011;10038;42.662;23.278;2022-10-31T13:15:32;2.87;;;2.20;;
19758;SDS011;10038;42.662;23.278;2022-10-31T13:20:54;2.37;;;2.03;;
19758;SDS011;10038;42.662;23.278;2022-10-31T13:23:24;1.67;;;1.57;;
19758;SDS011;10038;42.662;23.278;2022-10-31T13:25:56;3.73;;;2.50;;
19758;SDS011;10038;42.662;23.278;2022-10-31T13:28:28;2.50;;;2.10;;
19758;SDS011;10038;42.662;23.278;2022-10-31T13:31:01;2.77;;;1.80;;
19758;SDS011;10038;42.662;23.278;2022-10-31T13:33:29;2.73;;;2.10;;
19758;SDS011;10038;42.662;23.278;2022-10-31T13:36:03;2.90;;;2.23;;
19758;SDS011;10038;42.662;23.278;2022-10-31T13:38:41;2.40;;;1.80;;
19758;SDS011;10038;42.662;23.278;2022-10-31T13:41:22;2.30;;;2.10;;
19758;SDS011;10038;42.662;23.278;2022-10-31T13:44:00;3.73;;;2.10;;
19758;SDS011;10038;42.662;23.278;2022-10-31T13:46:35;3.80;;;2.03;;
19758;SDS011;10038;42.662;23.278;2022-10-31T13:49:03;3.10;;;2.60;;
19758;SDS011;10038;42.662;23.278;2022-10-31T13:51:31;2.30;;;1.87;;
19758;SDS011;10038;42.662;23.278;2022-10-31T13:53:59;2.50;;;2.03;;
19758;SDS011;10038;42.662;23.278;2022-10-31T13:56:33;4.07;;;1.97;;
19758;SDS011;10038;42.662;23.278;2022-10-31T13:59:03;3.10;;;2.07;;
19758;SDS011;10038;42.662;23.278;2022-10-31T14:01:54;2.47;;;1.77;;
19758;SDS011;10038;42.662;23.278;2022-10-31T14:04:23;2.50;;;1.97;;
19758;SDS011;10038;42.662;23.278;2022-10-31T14:06:58;3.67;;;1.93;;
19758;SDS011;10038;42.662;23.278;2022-10-31T14:09:33;3.10;;;2.23;;
19758;SDS011;10038;42.662;23.278;2022-10-31T14:12:04;2.00;;;1.53;;
19758;SDS011;10038;42.662;23.278;2022-10-31T14:14:35;2.40;;;2.10;;
19758;SDS011;10038;42.662;23.278;2022-10-31T14:17:14;2.03;;;1.50;;
19758;SDS011;10038;42.662;23.278;2022-10-31T14:19:55;3.37;;;2.40;;
19758;SDS011;10038;42.662;23.278;2022-10-31T14:22:28;3.17;;;2.33;;
19758;SDS011;10038;42.662;23.278;2022-10-31T14:24:56;5.07;;;2.20;;
19758;SDS011;10038;42.662;23.278;2022-10-31T14:27:35;3.40;;;2.13;;
19758;SDS011;10038;42.662;23.278;2022-10-31T14:30:15;2.20;;;1.70;;
19758;SDS011;10038;42.662;23.278;2022-10-31T14:32:44;5.07;;;2.67;;
19758;SDS011;10038;42.662;23.278;2022-10-31T14:35:17;2.13;;;1.90;;
19758;SDS011;10038;42.662;23.278;2022-10-31T14:40:37;2.80;;;2.20;;
19758;SDS011;10038;42.662;23.278;2022-10-31T14:46:32;7.40;;;2.53;;
19758;SDS011;10038;42.662;23.278;2022-10-31T14:49:12;4.33;;;2.70;;
19758;SDS011;10038;42.662;23.278;2022-10-31T14:51:48;4.30;;;3.07;;
19758;SDS011;10038;42.662;23.278;2022-10-31T14:54:18;2.80;;;1.63;;
19758;SDS011;10038;42.662;23.278;2022-10-31T14:56:50;2.53;;;2.20;;
19758;SDS011;10038;42.662;23.278;2022-10-31T14:59:23;3.77;;;2.10;;
19758;SDS011;10038;42.662;23.278;2022-10-31T15:01:56;4.27;;;2.27;;
19758;SDS011;10038;42.662;23.278;2022-10-31T15:04:25;3.73;;;2.20;;
19758;SDS011;10038;42.662;23.278;2022-10-31T15:06:58;9.07;;;3.43;;
19758;SDS011;10038;42.662;23.278;2022-10-31T15:09:29;15.30;;;3.30;;
19758;SDS011;10038;42.662;23.278;2022-10-31T15:11:58;5.57;;;2.43;;
19758;SDS011;10038;42.662;23.278;2022-10-31T15:14:27;4.83;;;2.63;;